Аэропорт
Кишинев (LUKK)

 LUKK / KIV
vACC Молдова
Кишинев (LUUU)
Кишинев (LUUU)
 46.92770, 28.93100  / 399 ft

 LUKK 220730Z VRB01KT 8000 OVC044 02/M01 Q1027 R08/D NOSIG
 TAF LUKK 212320Z 2200/2224 VRB05KT 9999 BKN040 TEMPO 2202/2206 BKN012
Название сценария Тип сценария Flight Simulator 9 Flight Simulator X Prepar3D v2 Prepar3D v3 Prepar3D v4 xPlane
LUKK Chisinau X платный(+демо)


2020 © VATRUS division (Privacy Policy)